createdAt,value
2022-10-03T00:04:06.221Z,99.99
2022-10-03T00:09:28.538Z,99.99
2022-10-03T00:14:21.472Z,99.99
2022-10-03T00:19:21.384Z,99.99
2022-10-03T00:24:21.328Z,99.99
2022-10-03T00:29:21.242Z,99.99
2022-10-03T00:34:21.177Z,99.99
2022-10-03T00:39:21.113Z,99.99
2022-10-03T00:44:21.054Z,99.99
2022-10-03T00:49:20.997Z,99.99
2022-10-03T00:54:20.914Z,99.99
2022-10-03T00:59:20.867Z,99.99
2022-10-03T01:04:20.776Z,99.99
2022-10-03T01:09:20.715Z,99.99
2022-10-03T01:14:20.644Z,99.99
2022-10-03T01:19:20.611Z,99.99
2022-10-03T01:24:20.510Z,99.99
2022-10-03T01:29:20.438Z,99.99
2022-10-03T01:34:20.372Z,99.99
2022-10-03T01:39:20.337Z,99.99
2022-10-03T01:44:20.248Z,99.99
2022-10-03T01:49:20.169Z,99.99
2022-10-03T01:54:20.129Z,99.99
2022-10-03T01:59:20.107Z,99.99
2022-10-03T02:04:19.984Z,99.99
2022-10-03T02:09:19.919Z,99.99
2022-10-03T02:14:19.837Z,99.99
2022-10-03T02:19:19.782Z,99.99
2022-10-03T02:24:19.716Z,99.99
2022-10-03T02:29:19.636Z,99.99
2022-10-03T02:34:19.571Z,99.99
2022-10-03T02:39:19.530Z,99.99
2022-10-03T02:44:19.430Z,99.99
2022-10-03T02:49:19.375Z,99.99
2022-10-03T02:54:19.325Z,99.99
2022-10-03T02:59:19.244Z,99.99
2022-10-03T03:04:19.174Z,99.99
2022-10-03T03:09:19.143Z,99.99
2022-10-03T03:14:19.029Z,99.99
2022-10-03T03:19:18.964Z,99.99
2022-10-03T03:24:18.945Z,99.99
2022-10-03T03:29:18.853Z,99.99
2022-10-03T03:34:18.806Z,99.99
2022-10-03T03:39:18.718Z,99.99
2022-10-03T03:44:18.647Z,99.99
2022-10-03T03:49:18.570Z,99.99
2022-10-03T03:54:18.500Z,99.99
2022-10-03T03:59:18.438Z,99.99
2022-10-03T04:04:19.062Z,99.99
2022-10-03T04:09:18.321Z,99.99
2022-10-03T04:14:18.245Z,99.99
2022-10-03T04:19:33.700Z,99.99
2022-10-03T04:24:26.097Z,99.99
2022-10-03T04:29:26.144Z,99.99
2022-10-03T04:34:25.944Z,99.99
2022-10-03T04:39:25.903Z,99.99
2022-10-03T04:44:25.829Z,99.99
2022-10-03T04:49:25.790Z,99.99
2022-10-03T04:54:25.701Z,99.99
2022-10-03T04:59:25.647Z,99.99
2022-10-03T05:04:25.571Z,99.99
2022-10-03T05:09:25.523Z,99.99
2022-10-03T05:14:25.457Z,99.99
2022-10-03T05:19:25.381Z,99.99
2022-10-03T05:24:25.303Z,99.99
2022-10-03T05:29:25.261Z,99.99
2022-10-03T05:34:25.178Z,99.99
2022-10-03T05:39:25.083Z,99.99
2022-10-03T05:44:25.067Z,99.99
2022-10-03T05:49:24.978Z,99.99
2022-10-03T05:54:24.909Z,99.99
2022-10-03T05:59:24.826Z,99.99
2022-10-03T06:04:24.777Z,99.99
2022-10-03T06:09:24.673Z,99.99
2022-10-03T06:14:24.618Z,99.99
2022-10-03T06:19:24.580Z,99.99
2022-10-03T06:24:24.487Z,99.99
2022-10-03T06:29:24.417Z,99.99
2022-10-03T06:34:24.390Z,99.99
2022-10-03T06:39:24.359Z,99.99
2022-10-03T06:44:24.193Z,99.99
2022-10-03T06:49:24.146Z,99.99
2022-10-03T06:54:24.073Z,99.99
2022-10-03T06:59:24.013Z,99.99
2022-10-03T07:04:23.969Z,99.99
2022-10-03T07:09:23.901Z,99.99
2022-10-03T07:14:23.839Z,99.99
2022-10-03T07:19:23.747Z,99.99
2022-10-03T07:24:23.678Z,99.99
2022-10-03T07:29:23.618Z,99.99
2022-10-03T07:34:23.673Z,99.99
2022-10-03T07:39:23.454Z,99.99
2022-10-03T07:44:23.415Z,98.71
2022-10-03T07:49:23.355Z,95.41
2022-10-03T07:54:23.275Z,94.85
2022-10-03T07:59:23.207Z,93.28
2022-10-03T08:04:23.147Z,92.77
2022-10-03T08:09:23.111Z,92.93
2022-10-03T08:14:23.007Z,92.97
2022-10-03T08:19:22.917Z,94.24
2022-10-03T08:24:22.859Z,93.79
2022-10-03T08:29:22.835Z,93.69
2022-10-03T08:34:22.745Z,92.83
2022-10-03T08:39:22.686Z,91.72
2022-10-03T08:44:25.036Z,90.01
2022-10-03T08:49:23.512Z,89.87
2022-10-03T08:54:22.440Z,86.02
2022-10-03T08:59:22.397Z,87.53
2022-10-03T09:04:22.352Z,89.00
2022-10-03T09:09:22.265Z,88.39
2022-10-03T09:14:22.173Z,87.79
2022-10-03T09:19:22.141Z,87.06
2022-10-03T09:24:22.052Z,83.81
2022-10-03T09:29:21.963Z,83.04
2022-10-03T09:34:21.914Z,83.85
2022-10-03T09:39:21.932Z,83.15
2022-10-03T09:44:21.965Z,80.13
2022-10-03T09:49:21.731Z,77.90
2022-10-03T09:54:21.639Z,75.44
2022-10-03T09:59:21.579Z,72.30
2022-10-03T10:04:37.356Z,67.88
2022-10-03T10:09:22.594Z,71.50
2022-10-03T10:14:21.543Z,74.63
2022-10-03T10:19:21.368Z,75.24
2022-10-03T10:24:21.426Z,78.21
2022-10-03T10:29:21.398Z,80.60
2022-10-03T10:34:22.746Z,73.85
2022-10-03T10:39:21.185Z,77.03
2022-10-03T10:44:21.000Z,79.97
2022-10-03T10:49:20.950Z,80.62
2022-10-03T10:54:20.817Z,80.92
2022-10-03T10:59:20.773Z,78.62
2022-10-03T11:04:20.711Z,78.28
2022-10-03T11:09:20.651Z,78.88
2022-10-03T11:14:20.580Z,78.62
2022-10-03T11:19:20.482Z,82.26
2022-10-03T11:24:20.453Z,81.45
2022-10-03T11:29:21.230Z,78.08
2022-10-03T11:34:20.275Z,78.99
2022-10-03T11:39:20.256Z,79.43
2022-10-03T11:44:20.164Z,79.93
2022-10-03T11:49:20.092Z,78.92
2022-10-03T11:54:31.198Z,77.77
2022-10-03T11:59:24.810Z,69.79
2022-10-03T12:04:20.880Z,63.01
2022-10-03T12:09:19.860Z,59.97
2022-10-03T12:14:19.771Z,60.12
2022-10-03T12:19:19.701Z,63.96
2022-10-03T12:24:19.628Z,67.17
2022-10-03T12:29:19.633Z,67.91
2022-10-03T12:34:19.482Z,68.54
2022-10-03T12:39:19.495Z,71.50
2022-10-03T12:44:19.342Z,71.03
2022-10-03T12:49:19.313Z,69.55
2022-10-03T12:54:20.818Z,67.27
2022-10-03T12:59:19.155Z,65.22
2022-10-03T13:04:19.101Z,66.71
2022-10-03T13:09:19.010Z,65.36
2022-10-03T13:14:18.958Z,63.65
2022-10-03T13:19:18.911Z,66.87
2022-10-03T13:24:18.846Z,66.67
2022-10-03T13:29:18.732Z,66.80
2022-10-03T13:34:18.665Z,68.61
2022-10-03T13:39:18.602Z,69.15
2022-10-03T13:44:18.537Z,69.28
2022-10-03T13:49:18.479Z,69.62
2022-10-03T13:54:18.393Z,70.79
2022-10-03T13:59:18.349Z,71.30
2022-10-03T14:04:18.299Z,71.91
2022-10-03T14:09:18.181Z,71.60
2022-10-03T14:14:18.133Z,72.51
2022-10-03T14:19:18.112Z,69.45
2022-10-03T14:24:17.985Z,71.57
2022-10-03T14:29:17.971Z,71.53
2022-10-03T14:34:17.868Z,73.59
2022-10-03T14:39:17.807Z,72.85
2022-10-03T14:44:17.734Z,80.00
2022-10-03T14:49:47.170Z,74.47
2022-10-03T14:54:18.608Z,77.40
2022-10-03T14:59:17.543Z,78.11
2022-10-03T15:04:17.450Z,75.01
2022-10-03T15:09:17.389Z,76.93
2022-10-03T15:14:17.318Z,80.07
2022-10-03T15:19:17.241Z,80.18
2022-10-03T15:24:17.184Z,83.61
2022-10-03T15:29:17.109Z,83.96
2022-10-03T15:34:17.073Z,86.08
2022-10-03T15:39:16.972Z,87.30
2022-10-03T15:44:16.921Z,86.94
2022-10-03T15:49:16.851Z,86.94
2022-10-03T15:54:16.793Z,88.56
2022-10-03T15:59:16.765Z,88.35
2022-10-03T16:04:16.639Z,88.40
2022-10-03T16:09:16.575Z,88.95
2022-10-03T16:14:16.501Z,89.39
2022-10-03T16:19:16.600Z,89.59
2022-10-03T16:24:16.383Z,89.94
2022-10-03T16:29:16.315Z,90.35
2022-10-03T16:34:16.216Z,91.00
2022-10-03T16:39:17.733Z,91.75
2022-10-03T16:44:16.116Z,92.61
2022-10-03T16:49:16.072Z,93.32
2022-10-03T16:54:15.991Z,93.77
2022-10-03T16:59:15.924Z,93.71
2022-10-03T17:04:15.907Z,93.96
2022-10-03T17:09:15.775Z,93.86
2022-10-03T17:14:16.014Z,93.90
2022-10-03T17:19:17.083Z,94.01
2022-10-03T17:24:15.549Z,94.56
2022-10-03T17:29:15.486Z,94.91
2022-10-03T17:34:15.443Z,94.71
2022-10-03T17:39:15.400Z,94.60
2022-10-03T17:44:15.326Z,94.85
2022-10-03T17:49:15.211Z,94.45
2022-10-03T17:54:15.180Z,95.31
2022-10-03T17:59:15.115Z,95.41
2022-10-03T18:04:15.013Z,95.76
2022-10-03T18:09:14.986Z,95.76
2022-10-03T18:14:14.942Z,95.86
2022-10-03T18:19:14.830Z,96.17
2022-10-03T18:24:14.724Z,96.11
2022-10-03T18:29:14.703Z,96.11
2022-10-03T18:34:14.614Z,96.21
2022-10-03T18:39:14.544Z,96.11
2022-10-03T18:44:14.478Z,95.90
2022-10-03T18:49:32.773Z,96.26
2022-10-03T18:54:15.381Z,96.26
2022-10-03T18:59:14.254Z,96.46
2022-10-03T19:04:14.265Z,96.46
2022-10-03T19:09:14.155Z,96.61
2022-10-03T19:14:14.078Z,97.02
2022-10-03T19:19:14.017Z,96.61
2022-10-03T19:24:13.932Z,96.92
2022-10-03T19:29:13.883Z,97.02
2022-10-03T19:34:13.817Z,97.06
2022-10-03T19:39:13.752Z,97.37
2022-10-03T19:44:13.690Z,97.52
2022-10-03T19:49:13.615Z,98.03
2022-10-03T19:54:13.555Z,98.44
2022-10-03T19:59:13.675Z,97.82
2022-10-03T20:04:15.737Z,98.07
2022-10-03T20:09:13.331Z,97.77
2022-10-03T20:14:13.339Z,97.97
2022-10-03T20:19:13.243Z,98.69
2022-10-03T20:24:13.126Z,98.43
2022-10-03T20:29:13.066Z,98.74
2022-10-03T20:34:13.522Z,99.15
2022-10-03T20:39:12.917Z,99.15
2022-10-03T20:44:12.880Z,98.74
2022-10-03T20:49:12.815Z,98.79
2022-10-03T20:54:12.750Z,98.38
2022-10-03T20:59:12.655Z,98.90
2022-10-03T21:04:12.689Z,98.63
2022-10-03T21:09:12.528Z,98.83
2022-10-03T21:14:12.466Z,98.58
2022-10-03T21:19:12.389Z,98.78
2022-10-03T21:24:12.326Z,98.99
2022-10-03T21:29:12.278Z,98.93
2022-10-03T21:34:12.204Z,98.93
2022-10-03T21:39:12.100Z,99.13
2022-10-03T21:44:12.054Z,98.46
2022-10-03T21:49:11.978Z,99.08
2022-10-03T21:54:11.957Z,99.49
2022-10-03T21:59:11.922Z,99.08
2022-10-03T22:04:11.782Z,99.28
2022-10-03T22:09:11.715Z,99.49
2022-10-03T22:14:11.654Z,99.43
2022-10-03T22:19:11.567Z,99.54
2022-10-03T22:24:11.534Z,99.63
2022-10-03T22:29:11.460Z,99.22
2022-10-03T22:34:11.376Z,99.63
2022-10-03T22:39:11.412Z,99.54
2022-10-03T22:44:11.235Z,99.95
2022-10-03T22:49:11.179Z,99.74
2022-10-03T22:54:11.117Z,99.54
2022-10-03T22:59:11.059Z,99.38
2022-10-03T23:04:11.137Z,99.79
2022-10-03T23:09:10.926Z,99.27
2022-10-03T23:14:10.838Z,99.83
2022-10-03T23:19:10.790Z,99.42
2022-10-03T23:24:10.685Z,99.83
2022-10-03T23:29:10.642Z,99.47
2022-10-03T23:34:10.587Z,99.47
2022-10-03T23:39:10.507Z,99.99
2022-10-03T23:44:10.433Z,99.99
2022-10-03T23:49:10.376Z,99.99
2022-10-03T23:54:10.519Z,99.99
2022-10-03T23:59:10.242Z,99.99
